Time;durP1;ratioP1;P1;durP2;ratioP2;P2;SDS_P1;SDS_P2;PMS_P1;PMS_P2;Temp;Humidity;BMP_temperature;BMP_pressure;BME280_temperature;BME280_humidity;BME280_pressure;Samples;Min_cycle;Max_cycle;Signal;HPM_P1;HPM_P2
2021/04/16 00:00:54;;;;;;;0.80;0.80;;;19.10;42.10;;;;;;5119132;27;20039;-37
2021/04/16 00:03:21;;;;;;;1.13;0.60;;;19.10;42.10;;;;;;5134595;27;20043;-38
2021/04/16 00:05:49;;;;;;;1.13;0.88;;;19.10;42.10;;;;;;5134012;27;20074;-37
2021/04/16 00:08:20;;;;;;;0.80;0.80;;;19.10;42.10;;;;;;5114120;27;20103;-37
2021/04/16 00:10:54;;;;;;;1.35;1.08;;;19.10;42.20;;;;;;5116267;27;20552;-38
2021/04/16 00:13:22;;;;;;;0.90;0.70;;;19.10;42.20;;;;;;5133002;27;20470;-37
2021/04/16 00:15:49;;;;;;;1.65;0.90;;;19.10;42.20;;;;;;5132855;27;20043;-38
2021/04/16 00:18:20;;;;;;;1.05;0.80;;;19.10;42.10;;;;;;5133873;27;20050;-37
2021/04/16 00:20:48;;;;;;;1.05;0.90;;;19.10;42.10;;;;;;5132680;27;20107;-37
2021/04/16 00:23:14;;;;;;;1.33;1.00;;;19.10;42.20;;;;;;5132920;27;20596;-37
2021/04/16 00:25:41;;;;;;;1.05;0.90;;;19.10;42.10;;;;;;5132794;27;20051;-37
2021/04/16 00:28:09;;;;;;;1.02;0.70;;;19.10;42.20;;;;;;5134339;27;20047;-38
2021/04/16 00:30:47;;;;;;;0.77;0.77;;;19.10;42.20;;;;;;5131331;27;20456;-37
2021/04/16 00:33:13;;;;;;;0.98;0.77;;;19.10;42.20;;;;;;5132594;27;20043;-37
2021/04/16 00:35:41;;;;;;;1.17;0.90;;;19.10;42.20;;;;;;5131672;27;20496;-38
2021/04/16 00:38:09;;;;;;;1.67;1.13;;;19.10;42.20;;;;;;5116683;27;20467;-38
2021/04/16 00:40:56;;;;;;;1.02;0.93;;;19.10;42.10;;;;;;5114407;28;20043;-37
2021/04/16 00:43:25;;;;;;;0.77;0.73;;;19.10;42.10;;;;;;5116874;27;20051;-38
2021/04/16 00:46:12;;;;;;;1.30;0.82;;;19.10;42.20;;;;;;5115278;27;20055;-37
2021/04/16 00:48:56;;;;;;;1.20;0.80;;;19.10;42.20;;;;;;5116613;27;20134;-38
2021/04/16 00:51:26;;;;;;;1.67;1.00;;;19.10;42.20;;;;;;5115333;27;20130;-37
2021/04/16 00:53:54;;;;;;;1.77;1.00;;;19.10;42.20;;;;;;5115181;27;20043;-38
2021/04/16 00:56:23;;;;;;;1.05;0.77;;;19.10;42.20;;;;;;5116421;27;20507;-38
2021/04/16 00:58:50;;;;;;;0.95;0.70;;;19.10;42.20;;;;;;5131112;27;20075;-38
2021/04/16 01:01:17;;;;;;;0.80;0.60;;;19.10;42.20;;;;;;5115099;27;20487;-38
2021/04/16 01:03:44;;;;;;;1.73;1.00;;;19.00;42.10;;;;;;5117926;27;20039;-38
2021/04/16 01:06:12;;;;;;;1.20;0.90;;;19.10;42.20;;;;;;5126651;27;20438;-37
2021/04/16 01:08:39;;;;;;;1.05;0.70;;;19.10;42.20;;;;;;5130862;27;20137;-37
2021/04/16 01:11:07;;;;;;;1.08;0.80;;;19.10;42.20;;;;;;5129741;27;20047;-37
2021/04/16 01:13:37;;;;;;;2.08;0.90;;;19.10;42.20;;;;;;5130590;27;20119;-37
2021/04/16 01:16:04;;;;;;;0.98;0.85;;;19.10;42.20;;;;;;5130842;27;20487;-37
2021/04/16 01:18:37;;;;;;;1.08;0.80;;;19.10;42.20;;;;;;5113483;27;20071;-38
2021/04/16 01:21:15;;;;;;;1.23;0.73;;;19.10;42.20;;;;;;5130546;27;20047;-38
2021/04/16 01:24:18;;;;;;;1.02;0.82;;;19.10;42.10;;;;;;5129388;27;20055;-39
2021/04/16 01:26:45;;;;;;;0.70;0.68;;;19.10;42.20;;;;;;5131949;27;20126;-39
2021/04/16 01:29:12;;;;;;;1.00;0.70;;;19.10;42.10;;;;;;5130472;27;20126;-38
2021/04/16 01:31:47;;;;;;;1.70;0.90;;;19.00;42.10;;;;;;5131231;27;20565;-38
2021/04/16 01:34:17;;;;;;;0.90;0.80;;;19.00;42.70;;;;;;5131295;28;20563;-38
2021/04/16 01:36:45;;;;;;;1.05;0.80;;;19.00;42.10;;;;;;5137532;27;20100;-37
2021/04/16 01:39:12;;;;;;;0.90;0.80;;;19.10;42.20;;;;;;5120174;27;20058;-38
2021/04/16 01:41:39;;;;;;;1.00;0.77;;;19.10;42.20;;;;;;5127928;27;20077;-37
2021/04/16 01:44:12;;;;;;;1.52;0.80;;;19.00;42.10;;;;;;5121608;27;20040;-38
2021/04/16 01:46:57;;;;;;;0.95;0.77;;;19.10;42.20;;;;;;5121194;27;20077;-38
2021/04/16 01:49:27;;;;;;;1.20;0.80;;;19.00;42.10;;;;;;5120097;27;20055;-37
2021/04/16 01:51:54;;;;;;;0.70;0.60;;;19.10;42.20;;;;;;5128118;27;20119;-38
2021/04/16 01:54:23;;;;;;;1.15;0.70;;;19.00;42.10;;;;;;5139403;27;20134;-38
2021/04/16 01:56:56;;;;;;;1.00;0.90;;;19.10;42.20;;;;;;5138310;27;20080;-37
2021/04/16 01:59:35;;;;;;;0.88;0.73;;;19.10;42.20;;;;;;5137959;27;20503;-38
2021/04/16 02:02:07;;;;;;;1.13;0.80;;;19.10;42.20;;;;;;5138374;27;20039;-38
2021/04/16 02:04:34;;;;;;;1.27;0.90;;;19.00;42.10;;;;;;5136659;27;20491;-38
2021/04/16 02:07:01;;;;;;;1.05;0.80;;;19.00;42.10;;;;;;5138176;27;20084;-38
2021/04/16 02:09:31;;;;;;;1.10;0.90;;;19.10;42.80;;;;;;5138279;27;20077;-38
2021/04/16 02:11:58;;;;;;;0.75;0.68;;;19.10;42.20;;;;;;5136932;27;20047;-38
2021/04/16 02:14:27;;;;;;;1.27;0.75;;;19.00;42.10;;;;;;5139057;27;20077;-37
2021/04/16 02:17:00;;;;;;;0.80;0.77;;;19.00;42.10;;;;;;5136721;27;20053;-37
2021/04/16 02:19:28;;;;;;;0.82;0.80;;;19.10;42.20;;;;;;5139411;27;20078;-37
2021/04/16 02:21:54;;;;;;;0.70;0.70;;;19.10;42.20;;;;;;5137023;27;20043;-37
2021/04/16 02:24:22;;;;;;;0.90;0.70;;;19.10;42.20;;;;;;5121122;27;20070;-37
2021/04/16 02:26:49;;;;;;;1.00;0.70;;;19.10;42.20;;;;;;5137794;27;20046;-38
2021/04/16 02:29:18;;;;;;;1.05;0.90;;;19.00;42.10;;;;;;5138729;27;20073;-38
2021/04/16 02:31:45;;;;;;;0.90;0.70;;;19.00;42.10;;;;;;5137196;27;20772;-38
2021/04/16 02:34:24;;;;;;;0.93;0.63;;;19.00;42.10;;;;;;5138449;27;20051;-38
2021/04/16 02:36:55;;;;;;;1.33;1.00;;;19.00;42.10;;;;;;5118923;27;20055;-37
2021/04/16 02:39:22;;;;;;;1.17;0.90;;;19.10;42.20;;;;;;5120444;27;20398;-38
2021/04/16 02:41:49;;;;;;;0.70;0.70;;;19.10;42.20;;;;;;5121347;27;20079;-37
2021/04/16 02:44:17;;;;;;;0.70;0.70;;;19.00;42.10;;;;;;5121903;27;20051;-38
2021/04/16 02:46:45;;;;;;;0.82;0.70;;;19.00;42.10;;;;;;5119320;27;20058;-38
2021/04/16 02:49:12;;;;;;;1.05;0.80;;;19.10;42.20;;;;;;5118432;27;20048;-37
2021/04/16 02:51:39;;;;;;;0.93;0.80;;;19.10;42.20;;;;;;5130462;27;20418;-37
2021/04/16 02:54:06;;;;;;;1.02;0.70;;;19.10;42.20;;;;;;5131878;27;20046;-38
2021/04/16 02:56:33;;;;;;;0.93;0.80;;;19.00;42.10;;;;;;5135599;27;20043;-36
2021/04/16 02:59:00;;;;;;;1.10;0.80;;;19.00;42.10;;;;;;5135317;27;20483;-37
2021/04/16 03:01:27;;;;;;;1.23;0.80;;;19.00;42.10;;;;;;5134016;27;20131;-38
2021/04/16 03:03:55;;;;;;;0.95;0.73;;;19.00;42.10;;;;;;5132939;27;20045;-37
2021/04/16 03:06:22;;;;;;;0.95;0.82;;;19.00;42.10;;;;;;5132708;27;20040;-37
2021/04/16 03:08:58;;;;;;;1.13;0.70;;;19.10;42.20;;;;;;5134451;27;20055;-37
2021/04/16 03:11:26;;;;;;;0.75;0.60;;;19.00;42.10;;;;;;5134160;27;20051;-37
2021/04/16 03:13:53;;;;;;;1.00;0.80;;;19.00;42.10;;;;;;5132624;27;20116;-37
2021/04/16 03:16:24;;;;;;;1.00;0.70;;;19.00;42.10;;;;;;5131829;27;20054;-37
2021/04/16 03:18:52;;;;;;;1.35;0.90;;;19.10;42.20;;;;;;5133944;27;20039;-37
2021/04/16 03:21:20;;;;;;;1.20;0.80;;;19.00;42.10;;;;;;5131646;27;20047;-37
2021/04/16 03:23:46;;;;;;;1.00;0.70;;;19.00;42.10;;;;;;5132750;27;20414;-36
2021/04/16 03:26:16;;;;;;;0.98;0.57;;;19.10;42.80;;;;;;5130195;27;20130;-37
2021/04/16 03:28:43;;;;;;;0.90;0.80;;;19.00;42.70;;;;;;5117078;27;20051;-37
2021/04/16 03:31:10;;;;;;;0.70;0.70;;;19.00;42.10;;;;;;5117274;27;20043;-37
2021/04/16 03:33:38;;;;;;;0.85;0.70;;;19.00;42.10;;;;;;5118441;27;20071;-37
2021/04/16 03:36:07;;;;;;;0.73;0.63;;;19.10;42.20;;;;;;5126528;27;20080;-37
2021/04/16 03:38:33;;;;;;;0.80;0.70;;;19.10;42.20;;;;;;5099025;27;20039;-37
2021/04/16 03:41:00;;;;;;;0.80;0.75;;;19.00;42.10;;;;;;5116345;27;20082;-37
2021/04/16 03:43:26;;;;;;;0.80;0.75;;;19.00;42.10;;;;;;5116159;27;20093;-37
2021/04/16 03:45:56;;;;;;;0.90;0.70;;;19.00;42.10;;;;;;5133840;27;20043;-37
2021/04/16 03:48:22;;;;;;;0.82;0.80;;;19.10;42.20;;;;;;5132834;27;20053;-38
2021/04/16 03:50:49;;;;;;;1.42;0.73;;;19.10;42.20;;;;;;5131904;27;20483;-37
2021/04/16 03:53:16;;;;;;;0.90;0.70;;;19.00;42.10;;;;;;5116823;27;20086;-37
2021/04/16 03:55:43;;;;;;;1.00;0.85;;;19.00;42.10;;;;;;5130957;27;20051;-36
2021/04/16 03:58:11;;;;;;;1.23;0.70;;;19.10;42.20;;;;;;5130340;27;20047;-37
2021/04/16 04:00:40;;;;;;;1.25;0.90;;;19.00;42.10;;;;;;5131589;27;20086;-37
2021/04/16 04:03:08;;;;;;;1.20;0.95;;;19.00;42.10;;;;;;5133430;27;20047;-37
2021/04/16 04:05:35;;;;;;;2.35;1.05;;;19.00;42.10;;;;;;5116094;27;20039;-37
2021/04/16 04:08:03;;;;;;;1.20;0.93;;;19.00;42.10;;;;;;5132111;27;20402;-37
2021/04/16 04:10:36;;;;;;;0.73;0.60;;;19.00;42.10;;;;;;5133240;27;20104;-36
2021/04/16 04:13:07;;;;;;;1.33;1.00;;;19.00;42.10;;;;;;5130586;27;20129;-36
2021/04/16 04:15:35;;;;;;;0.80;0.80;;;19.10;42.20;;;;;;5131774;27;20051;-37
2021/04/16 04:18:07;;;;;;;0.68;0.68;;;19.10;42.20;;;;;;5130675;27;20042;-37
2021/04/16 04:20:36;;;;;;;0.95;0.80;;;19.10;42.20;;;;;;5133043;27;20051;-37
2021/04/16 04:23:05;;;;;;;1.33;0.95;;;19.00;42.10;;;;;;5132992;27;20039;-37
2021/04/16 04:25:32;;;;;;;0.90;0.82;;;19.10;42.20;;;;;;5127446;27;20051;-37
2021/04/16 04:28:02;;;;;;;1.15;0.77;;;19.10;42.20;;;;;;5115894;27;20048;-37
2021/04/16 04:30:32;;;;;;;1.33;0.93;;;19.00;42.10;;;;;;5117023;27;20051;-37
2021/04/16 04:32:59;;;;;;;0.70;0.60;;;19.10;42.20;;;;;;5099188;28;20105;-38
2021/04/16 04:35:26;;;;;;;0.95;0.65;;;19.00;42.10;;;;;;5118481;27;20466;-37
2021/04/16 04:37:54;;;;;;;1.10;0.80;;;19.10;42.20;;;;;;5131905;27;20062;-37
2021/04/16 04:40:23;;;;;;;1.75;0.90;;;19.00;42.10;;;;;;5113005;27;20035;-37
2021/04/16 04:42:50;;;;;;;1.50;1.17;;;19.00;42.10;;;;;;5133500;27;20091;-37
2021/04/16 04:45:18;;;;;;;1.30;0.90;;;19.10;42.20;;;;;;5114681;27;20047;-37
2021/04/16 04:47:45;;;;;;;1.20;1.00;;;19.00;42.10;;;;;;5132253;27;20501;-37
2021/04/16 04:50:13;;;;;;;1.10;0.80;;;19.00;42.10;;;;;;5132788;27;20407;-37
2021/04/16 04:52:41;;;;;;;1.30;0.90;;;19.00;42.10;;;;;;5130916;27;20418;-37
2021/04/16 04:55:13;;;;;;;2.03;0.80;;;19.00;42.10;;;;;;5132723;27;20529;-37
2021/04/16 04:57:39;;;;;;;0.77;0.73;;;19.00;42.10;;;;;;5131486;27;20130;-38
2021/04/16 05:00:09;;;;;;;2.03;0.90;;;19.00;42.10;;;;;;5129147;27;20047;-37
2021/04/16 05:02:36;;;;;;;0.88;0.70;;;19.10;42.10;;;;;;5113492;27;20078;-37
2021/04/16 05:05:03;;;;;;;1.05;0.88;;;19.00;42.10;;;;;;5132933;27;20129;-38
2021/04/16 05:07:30;;;;;;;1.02;0.90;;;19.00;42.10;;;;;;5131924;27;20069;-37
2021/04/16 05:09:57;;;;;;;1.13;0.73;;;19.00;42.10;;;;;;5132500;27;20218;-37
2021/04/16 05:12:23;;;;;;;1.30;0.80;;;19.10;42.10;;;;;;5130490;27;20047;-37
2021/04/16 05:14:50;;;;;;;0.73;0.70;;;19.10;42.10;;;;;;5131298;27;20055;-37
2021/04/16 05:17:17;;;;;;;1.20;0.90;;;19.00;42.10;;;;;;5132644;27;20096;-37
2021/04/16 05:19:44;;;;;;;1.02;0.82;;;19.00;42.10;;;;;;5124462;27;20392;-37
2021/04/16 05:22:14;;;;;;;1.10;0.70;;;19.00;42.10;;;;;;5115550;27;20047;-37
2021/04/16 05:24:41;;;;;;;0.93;0.80;;;19.00;42.10;;;;;;5122663;27;20126;-37
2021/04/16 05:27:11;;;;;;;1.30;0.70;;;19.00;42.10;;;;;;5130171;27;20497;-38
2021/04/16 05:29:38;;;;;;;2.15;1.10;;;19.10;42.10;;;;;;5125880;27;20097;-37
2021/04/16 05:32:06;;;;;;;0.98;0.75;;;19.10;42.10;;;;;;5120230;27;20076;-37
2021/04/16 05:34:33;;;;;;;1.80;0.57;;;19.10;42.10;;;;;;5128330;28;20516;-37
2021/04/16 05:37:00;;;;;;;0.90;0.77;;;19.00;42.00;;;;;;5115718;28;20486;-38
2021/04/16 05:39:27;;;;;;;1.08;0.82;;;19.00;42.00;;;;;;5117043;28;20081;-37
2021/04/16 05:41:54;;;;;;;1.45;0.80;;;19.00;42.00;;;;;;5130179;28;20088;-37
2021/04/16 05:44:21;;;;;;;0.93;0.70;;;19.00;42.00;;;;;;5132561;28;20066;-37
2021/04/16 05:46:47;;;;;;;1.27;0.90;;;19.00;42.10;;;;;;5131470;28;20039;-37
2021/04/16 05:49:14;;;;;;;1.70;0.93;;;19.10;42.10;;;;;;5130591;28;20051;-36
2021/04/16 05:51:41;;;;;;;1.00;0.80;;;19.00;42.00;;;;;;5131258;28;20043;-37
2021/04/16 05:54:10;;;;;;;0.75;0.65;;;19.00;42.00;;;;;;5130513;28;20051;-37
2021/04/16 05:56:36;;;;;;;1.23;0.85;;;19.00;42.00;;;;;;5132334;28;20047;-37
2021/04/16 05:59:03;;;;;;;1.15;0.50;;;19.00;42.00;;;;;;5129505;28;20075;-37
2021/04/16 06:01:32;;;;;;;1.00;0.90;;;19.10;42.10;;;;;;5132488;28;20094;-37
2021/04/16 06:04:00;;;;;;;0.95;0.70;;;19.10;42.10;;;;;;5131036;28;20449;-37
2021/04/16 06:06:26;;;;;;;1.00;0.77;;;19.10;42.10;;;;;;5132184;28;20577;-37
2021/04/16 06:08:55;;;;;;;0.95;0.80;;;19.10;42.10;;;;;;5131027;28;20162;-37
2021/04/16 06:11:23;;;;;;;0.80;0.68;;;19.00;42.00;;;;;;5130955;28;20043;-37
2021/04/16 06:13:50;;;;;;;0.95;0.70;;;19.10;42.10;;;;;;5131941;28;20059;-37
2021/04/16 06:16:16;;;;;;;2.15;0.98;;;19.00;42.00;;;;;;5123326;28;20040;-37
2021/04/16 06:18:43;;;;;;;0.75;0.68;;;19.00;42.00;;;;;;5115799;28;20052;-37
2021/04/16 06:21:11;;;;;;;0.90;0.80;;;19.10;42.10;;;;;;5114132;28;20150;-37
2021/04/16 06:23:37;;;;;;;1.52;0.90;;;19.00;42.00;;;;;;5119370;27;20489;-37
2021/04/16 06:26:04;;;;;;;0.70;0.55;;;19.00;42.60;;;;;;5119309;27;20427;-38
2021/04/16 06:28:32;;;;;;;1.13;0.88;;;19.00;42.00;;;;;;5121046;27;20043;-38
2021/04/16 06:30:58;;;;;;;1.70;0.95;;;19.00;42.00;;;;;;5134501;27;20126;-37
2021/04/16 06:33:27;;;;;;;0.80;0.70;;;19.10;42.10;;;;;;5133792;27;20117;-38
2021/04/16 06:35:57;;;;;;;1.20;0.80;;;19.10;42.10;;;;;;5124838;27;20035;-37
2021/04/16 06:38:27;;;;;;;1.52;0.88;;;19.10;42.10;;;;;;5132171;27;20043;-37
2021/04/16 06:40:55;;;;;;;0.93;0.73;;;19.00;41.90;;;;;;5135147;27;20111;-37
2021/04/16 06:43:24;;;;;;;1.33;0.80;;;19.00;42.00;;;;;;5116306;27;20469;-37
2021/04/16 06:45:59;;;;;;;0.93;0.75;;;19.00;42.00;;;;;;5116583;27;20047;-38
2021/04/16 06:48:26;;;;;;;1.65;0.95;;;19.10;42.00;;;;;;5133618;27;20130;-38
2021/04/16 06:50:58;;;;;;;1.00;0.80;;;19.00;42.00;;;;;;5133743;27;20095;-38
2021/04/16 06:53:44;;;;;;;1.05;0.80;;;19.00;41.90;;;;;;5133886;27;20096;-38
2021/04/16 06:56:15;;;;;;;1.00;0.80;;;19.10;42.00;;;;;;5116700;27;20388;-38
2021/04/16 06:58:51;;;;;;;0.88;0.70;;;19.10;42.00;;;;;;5133124;27;20194;-37
2021/04/16 07:01:40;;;;;;;0.90;0.82;;;19.10;42.00;;;;;;5116393;27;20488;-38
2021/04/16 07:04:32;;;;;;;1.40;0.80;;;19.10;42.00;;;;;;5118568;27;20043;-38
2021/04/16 07:07:45;;;;;;;1.08;0.90;;;19.10;42.00;;;;;;5132000;27;20074;-37
2021/04/16 07:10:17;;;;;;;1.58;0.85;;;19.10;42.00;;;;;;5118917;27;20051;-38
2021/04/16 07:12:45;;;;;;;1.85;0.90;;;19.00;41.90;;;;;;5118395;27;20495;-37
2021/04/16 07:15:28;;;;;;;1.45;0.80;;;19.10;42.10;;;;;;5123358;27;20078;-38
2021/04/16 07:17:55;;;;;;;1.10;1.00;;;19.10;42.00;;;;;;5123244;27;20059;-37
2021/04/16 07:20:23;;;;;;;1.13;0.93;;;19.10;42.00;;;;;;5124145;27;20075;-38
2021/04/16 07:22:53;;;;;;;0.85;0.80;;;19.10;42.00;;;;;;5133954;27;20387;-37
2021/04/16 07:25:37;;;;;;;1.50;0.70;;;19.10;42.00;;;;;;5135122;27;20051;-37
2021/04/16 07:28:08;;;;;;;1.10;1.00;;;19.10;42.00;;;;;;5126723;27;20522;-38
2021/04/16 07:30:45;;;;;;;1.35;0.95;;;19.10;41.90;;;;;;5123454;27;20047;-37
2021/04/16 07:33:32;;;;;;;0.77;0.70;;;19.10;41.90;;;;;;5130582;27;20046;-37
2021/04/16 07:36:37;;;;;;;1.17;0.80;;;19.10;41.90;;;;;;5131586;27;20096;-38
2021/04/16 07:39:13;;;;;;;1.20;0.90;;;19.10;41.90;;;;;;5131006;27;20564;-38
2021/04/16 07:41:46;;;;;;;1.17;0.88;;;19.10;41.90;;;;;;5132423;27;20099;-37
2021/04/16 07:44:35;;;;;;;1.25;0.65;;;19.10;41.90;;;;;;5134610;27;20039;-38
2021/04/16 07:47:13;;;;;;;1.05;0.90;;;19.10;41.90;;;;;;5132390;27;20050;-37
2021/04/16 07:49:59;;;;;;;0.82;0.73;;;19.10;41.90;;;;;;5132020;27;20051;-38
2021/04/16 07:52:36;;;;;;;1.38;0.80;;;19.10;41.80;;;;;;5132324;27;20051;-37
2021/04/16 07:55:05;;;;;;;0.93;0.80;;;19.10;41.90;;;;;;5132409;27;20559;-37
2021/04/16 07:57:35;;;;;;;0.98;0.70;;;19.10;41.90;;;;;;5133804;27;20126;-38
2021/04/16 08:00:05;;;;;;;1.30;0.68;;;19.10;41.80;;;;;;5134381;27;20075;-38
2021/04/16 08:03:01;;;;;;;1.00;0.80;;;19.10;41.80;;;;;;5132113;27;20046;-38
2021/04/16 08:05:39;;;;;;;0.77;0.63;;;19.10;41.80;;;;;;5116690;27;20123;-38
2021/04/16 08:08:10;;;;;;;1.17;0.85;;;19.10;41.80;;;;;;5117388;27;20429;-38
2021/04/16 08:10:38;;;;;;;1.35;1.00;;;19.10;41.70;;;;;;5115532;27;20059;-38
2021/04/16 08:13:27;;;;;;;1.08;0.80;;;19.10;41.70;;;;;;5132460;27;20047;-38
2021/04/16 08:16:09;;;;;;;1.20;0.90;;;19.10;41.70;;;;;;5116973;27;20078;-39
2021/04/16 08:18:36;;;;;;;1.20;0.80;;;19.10;41.70;;;;;;5117050;27;20118;-37
2021/04/16 08:21:26;;;;;;;1.02;0.90;;;19.10;41.70;;;;;;5115080;27;20054;-38
2021/04/16 08:23:59;;;;;;;1.10;0.80;;;19.10;41.70;;;;;;5133626;27;20506;-38
2021/04/16 08:26:35;;;;;;;1.52;1.10;;;19.20;41.80;;;;;;5129501;27;20058;-38
2021/04/16 08:29:22;;;;;;;2.30;0.90;;;19.10;41.70;;;;;;5117278;27;20047;-38
2021/04/16 08:32:03;;;;;;;1.05;0.95;;;19.20;41.70;;;;;;5130039;27;20047;-37
2021/04/16 08:34:48;;;;;;;1.33;0.80;;;19.10;41.70;;;;;;5130593;27;20059;-38
2021/04/16 08:37:24;;;;;;;1.17;0.90;;;19.20;41.70;;;;;;5131431;27;20054;-38
2021/04/16 08:39:52;;;;;;;1.17;0.80;;;19.20;41.70;;;;;;5131268;27;20407;-39
2021/04/16 08:42:28;;;;;;;1.88;0.80;;;19.20;41.80;;;;;;5130995;27;20039;-38
2021/04/16 08:45:09;;;;;;;1.33;0.88;;;19.20;41.80;;;;;;5131856;27;20096;-38
2021/04/16 08:47:55;;;;;;;1.42;1.05;;;19.20;41.70;;;;;;5123716;27;20073;-38
2021/04/16 08:50:28;;;;;;;1.15;0.75;;;19.20;41.70;;;;;;5124880;27;20078;-38
2021/04/16 08:52:59;;;;;;;0.98;0.73;;;19.20;41.70;;;;;;5133449;27;20499;-39
2021/04/16 08:55:30;;;;;;;1.52;0.77;;;19.20;41.70;;;;;;5133418;27;20092;-38
2021/04/16 08:58:34;;;;;;;1.15;1.00;;;19.20;41.80;;;;;;5130837;27;20112;-38
2021/04/16 09:01:08;;;;;;;1.00;0.85;;;19.20;41.80;;;;;;5129478;27;20046;-37
2021/04/16 09:03:56;;;;;;;1.08;0.82;;;19.20;41.70;;;;;;5117399;27;20076;-38
2021/04/16 09:06:31;;;;;;;1.02;0.80;;;19.20;41.80;;;;;;5114760;27;20054;-38
2021/04/16 09:09:00;;;;;;;0.95;0.75;;;19.20;41.80;;;;;;5115542;27;20079;-37
2021/04/16 09:11:47;;;;;;;1.20;0.98;;;19.20;41.80;;;;;;5132620;27;20085;-38
2021/04/16 09:14:25;;;;;;;1.00;0.80;;;19.20;41.80;;;;;;5130573;27;20503;-37
2021/04/16 09:17:06;;;;;;;1.48;0.90;;;19.20;41.80;;;;;;5131312;27;20043;-38
2021/04/16 09:19:32;;;;;;;1.45;0.98;;;19.20;41.70;;;;;;5114772;27;20055;-38
2021/04/16 09:22:05;;;;;;;1.50;0.98;;;19.20;41.80;;;;;;5116329;27;20065;-38
2021/04/16 09:24:55;;;;;;;0.88;0.77;;;19.20;41.80;;;;;;5131643;27;20104;-38
2021/04/16 09:27:42;;;;;;;1.30;0.88;;;19.20;41.70;;;;;;5131315;27;20043;-38
2021/04/16 09:30:13;;;;;;;1.25;0.80;;;19.20;41.70;;;;;;5113522;28;20134;-38
2021/04/16 09:33:11;;;;;;;0.93;0.70;;;19.20;41.80;;;;;;5131128;27;20049;-38
2021/04/16 09:35:38;;;;;;;0.75;0.70;;;19.20;41.70;;;;;;5121955;28;20116;-38
2021/04/16 09:38:28;;;;;;;1.40;0.90;;;19.20;41.70;;;;;;5133137;28;20043;-37
2021/04/16 09:41:22;;;;;;;0.93;0.70;;;19.20;41.70;;;;;;5132617;28;20448;-38
2021/04/16 09:43:55;;;;;;;0.80;0.80;;;19.20;41.70;;;;;;5130448;28;20095;-38
2021/04/16 09:46:26;;;;;;;0.85;0.60;;;19.20;41.70;;;;;;5130418;28;20082;-38
2021/04/16 09:48:55;;;;;;;0.73;0.60;;;19.20;41.70;;;;;;5131894;28;20043;-38
2021/04/16 09:51:34;;;;;;;1.35;0.85;;;19.20;41.70;;;;;;5131341;28;20448;-38
2021/04/16 09:54:12;;;;;;;1.88;1.05;;;19.30;41.80;;;;;;5132799;28;20405;-38
2021/04/16 09:57:01;;;;;;;1.38;0.82;;;19.30;41.80;;;;;;5124917;27;20043;-37
2021/04/16 09:59:40;;;;;;;1.23;0.80;;;19.20;41.70;;;;;;5128050;27;20482;-38
2021/04/16 10:02:17;;;;;;;1.10;0.80;;;19.20;41.70;;;;;;5134392;27;20119;-38
2021/04/16 10:05:02;;;;;;;2.20;0.80;;;19.20;41.70;;;;;;5126551;27;20044;-38
2021/04/16 10:07:43;;;;;;;0.98;0.70;;;19.20;41.70;;;;;;5120148;27;20047;-38
2021/04/16 10:10:15;;;;;;;1.35;0.82;;;19.20;41.70;;;;;;5118653;27;20047;-37
2021/04/16 10:12:42;;;;;;;1.20;0.90;;;19.30;41.80;;;;;;5119279;27;20121;-38
2021/04/16 10:15:21;;;;;;;1.48;0.93;;;19.20;41.70;;;;;;5127429;27;20059;-37
2021/04/16 10:17:59;;;;;;;1.00;0.68;;;19.30;41.80;;;;;;5134819;27;20078;-38
2021/04/16 10:20:30;;;;;;;0.90;0.80;;;19.20;41.80;;;;;;5135110;27;20047;-37
2021/04/16 10:23:04;;;;;;;1.55;0.75;;;19.30;41.80;;;;;;5136309;27;20127;-38
2021/04/16 10:57:35;;;;;;;0.88;0.60;;;19.30;41.80;;;;;;5122504;27;20058;-38
2021/04/16 12:39:03;;;;;;;0.77;0.63;;;19.30;41.80;;;;;;5123645;27;20101;-38
2021/04/16 12:41:42;;;;;;;0.90;0.73;;;19.30;41.80;;;;;;5122143;27;20611;-37
2021/04/16 12:44:23;;;;;;;0.88;0.60;;;19.30;41.80;;;;;;5122374;27;20048;-37
2021/04/16 12:46:54;;;;;;;1.00;0.60;;;19.30;41.80;;;;;;5121459;27;20051;-37
2021/04/16 12:49:26;;;;;;;0.85;0.73;;;19.30;41.70;;;;;;5121628;27;20058;-38
2021/04/16 12:51:54;;;;;;;1.02;0.70;;;19.30;41.80;;;;;;5105715;27;20047;-37
2021/04/16 12:54:20;;;;;;;1.17;0.93;;;19.30;41.70;;;;;;5122199;27;20039;-37
2021/04/16 12:56:49;;;;;;;2.40;0.93;;;19.30;41.70;;;;;;5102679;27;20127;-37
2021/04/16 12:59:20;;;;;;;1.10;0.70;;;19.30;41.80;;;;;;5122237;27;20122;-38
2021/04/16 13:01:50;;;;;;;1.90;0.90;;;19.30;41.70;;;;;;5123378;27;20383;-38
2021/04/16 13:04:20;;;;;;;0.93;0.73;;;19.30;41.70;;;;;;5123105;27;20043;-37
2021/04/16 13:06:48;;;;;;;0.98;0.80;;;19.30;41.70;;;;;;5122295;27;20119;-38
2021/04/16 13:09:18;;;;;;;1.50;1.00;;;19.30;41.70;;;;;;5123275;27;20062;-37
2021/04/16 13:11:48;;;;;;;1.35;0.73;;;19.30;41.70;;;;;;5122103;27;20039;-37
2021/04/16 13:14:15;;;;;;;1.30;0.98;;;19.30;41.70;;;;;;5122830;27;20512;-37
2021/04/16 13:16:41;;;;;;;1.10;0.80;;;19.30;41.70;;;;;;5121458;27;20048;-36
2021/04/16 13:19:41;;;;;;;0.85;0.68;;;19.30;41.70;;;;;;5123074;27;20104;-37
2021/04/16 13:22:18;;;;;;;1.05;0.80;;;19.30;41.70;;;;;;5121724;27;20054;-37
2021/04/16 13:24:47;;;;;;;1.02;0.70;;;19.30;41.70;;;;;;5122532;27;20047;-36
2021/04/16 13:27:28;;;;;;;0.98;0.80;;;19.30;41.70;;;;;;5122134;27;20112;-37
2021/04/16 13:29:55;;;;;;;2.53;0.80;;;19.30;41.80;;;;;;5122028;27;20051;-37
2021/04/16 13:32:24;;;;;;;1.10;0.70;;;19.30;41.70;;;;;;5121521;27;20056;-37
2021/04/16 13:34:53;;;;;;;0.70;0.70;;;19.30;41.70;;;;;;5120679;27;20494;-37
2021/04/16 13:37:31;;;;;;;1.10;0.77;;;19.30;41.70;;;;;;5122153;27;20047;-37
2021/04/16 13:39:59;;;;;;;1.02;0.80;;;19.30;41.70;;;;;;5122859;27;20082;-38
2021/04/16 13:42:25;;;;;;;0.88;0.60;;;19.30;41.70;;;;;;5121057;27;20483;-38
2021/04/16 13:44:52;;;;;;;1.63;0.75;;;19.30;41.70;;;;;;5120926;28;20078;-37
2021/04/16 13:47:24;;;;;;;1.00;0.63;;;19.30;41.80;;;;;;5122456;27;20069;-37
2021/04/16 13:49:55;;;;;;;0.90;0.60;;;19.30;41.80;;;;;;5123465;28;20420;-38
2021/04/16 13:52:23;;;;;;;1.00;0.70;;;19.30;41.70;;;;;;5121396;28;20133;-37
2021/04/16 13:54:50;;;;;;;0.90;0.70;;;19.30;41.80;;;;;;5122907;27;20514;-38
2021/04/16 13:57:18;;;;;;;1.20;0.85;;;19.30;41.70;;;;;;5122951;27;20040;-37
2021/04/16 13:59:46;;;;;;;1.00;0.70;;;19.30;41.80;;;;;;5121060;27;20092;-38
2021/04/16 14:02:24;;;;;;;0.90;0.80;;;19.30;41.80;;;;;;5121419;28;20044;-37
2021/04/16 14:04:53;;;;;;;1.27;0.80;;;19.30;41.80;;;;;;5120416;28;20099;-39
2021/04/16 14:07:22;;;;;;;1.23;0.95;;;19.30;41.80;;;;;;5122772;27;20058;-37
2021/04/16 14:09:49;;;;;;;0.88;0.70;;;19.30;41.80;;;;;;5121506;28;20059;-38
2021/04/16 14:12:16;;;;;;;1.00;0.90;;;19.30;41.70;;;;;;5121201;27;20131;-37
2021/04/16 14:14:44;;;;;;;1.02;0.63;;;19.30;41.80;;;;;;5120150;28;20086;-37
2021/04/16 14:17:31;;;;;;;0.90;0.70;;;19.30;41.80;;;;;;5122519;27;20097;-37
2021/04/16 14:20:26;;;;;;;1.15;0.60;;;19.30;41.80;;;;;;5120475;27;20082;-37
2021/04/16 14:22:53;;;;;;;;;;;19.30;41.80;;;;;;5121440;27;20036;-37
2021/04/16 14:25:26;;;;;;;1.20;0.77;;;19.20;41.70;;;;;;5122490;27;19930;-37
2021/04/16 14:27:52;;;;;;;1.13;0.90;;;19.20;42.30;;;;;;5121222;28;20051;-38
2021/04/16 14:30:26;;;;;;;0.80;0.70;;;19.20;41.70;;;;;;5120617;28;20130;-37
2021/04/16 14:32:55;;;;;;;1.33;0.80;;;19.30;41.80;;;;;;5121906;28;20075;-37
2021/04/16 14:35:26;;;;;;;1.17;0.70;;;19.20;41.70;;;;;;5120738;28;20499;-37
2021/04/16 14:37:53;;;;;;;0.85;0.80;;;19.30;41.80;;;;;;5122104;27;20047;-37
2021/04/16 14:40:22;;;;;;;1.17;0.80;;;19.30;41.80;;;;;;5121495;27;20499;-37
2021/04/16 14:42:49;;;;;;;1.35;0.95;;;19.20;41.70;;;;;;5122969;27;20411;-37
2021/04/16 14:45:20;;;;;;;0.60;0.52;;;19.20;41.70;;;;;;5125941;27;20121;-37
2021/04/16 14:47:46;;;;;;;0.77;0.63;;;19.20;41.70;;;;;;5126000;27;20047;-37
2021/04/16 14:50:14;;;;;;;1.33;0.70;;;19.30;41.80;;;;;;5124093;27;20461;-37
2021/04/16 14:52:41;;;;;;;1.20;0.82;;;19.20;41.70;;;;;;5125326;27;20101;-37
2021/04/16 14:55:22;;;;;;;1.50;0.82;;;19.20;41.70;;;;;;5126320;27;20051;-37
2021/04/16 14:57:50;;;;;;;0.50;0.50;;;19.30;41.80;;;;;;5125827;27;20051;-38
2021/04/16 15:00:22;;;;;;;0.82;0.68;;;19.20;41.70;;;;;;5126543;27;20047;-37
2021/04/16 15:02:48;;;;;;;1.30;0.88;;;19.20;42.30;;;;;;5106155;27;20047;-38
2021/04/16 15:05:18;;;;;;;1.10;0.70;;;19.20;41.70;;;;;;5124398;27;20050;-37
2021/04/16 15:07:56;;;;;;;0.82;0.70;;;19.20;41.70;;;;;;5106169;27;21712;-37
2021/04/16 15:10:32;;;;;;;0.70;0.70;;;19.20;41.70;;;;;;5107066;27;20056;-38
2021/04/16 15:12:59;;;;;;;1.13;0.73;;;19.20;41.70;;;;;;5123265;27;20105;-37
2021/04/16 15:15:41;;;;;;;0.77;0.68;;;19.20;41.70;;;;;;5124393;27;20047;-37
2021/04/16 15:18:09;;;;;;;1.38;0.80;;;19.20;41.70;;;;;;5125544;27;20542;-37
2021/04/16 15:20:38;;;;;;;0.70;0.70;;;19.20;41.70;;;;;;5125187;27;20449;-37
2021/04/16 15:23:06;;;;;;;1.10;0.80;;;19.20;41.70;;;;;;5124023;27;20047;-37